createdAt,value
2023-02-07T10:20:50.915Z,11.47
2023-02-07T10:23:17.197Z,15.33
2023-02-07T10:25:43.463Z,17.18
2023-02-07T10:28:09.754Z,16.86
2023-02-07T10:30:36.281Z,18.25
2023-02-07T10:33:02.730Z,18.75
2023-02-07T10:35:29.041Z,18.77
2023-02-07T10:37:55.322Z,20.07
2023-02-07T10:40:21.692Z,20.80
2023-02-07T10:42:47.968Z,22.66
2023-02-07T10:45:14.268Z,21.27
2023-02-07T10:47:40.527Z,22.79
2023-02-07T10:50:06.803Z,22.50
2023-02-07T10:52:33.163Z,21.11
2023-02-07T10:54:59.416Z,21.14
2023-02-07T10:57:25.913Z,22.13
2023-02-07T10:59:52.189Z,21.51
2023-02-07T11:02:18.465Z,21.75
2023-02-07T11:04:44.757Z,21.14
2023-02-07T11:07:11.054Z,21.19
2023-02-07T11:09:37.441Z,21.81
2023-02-07T11:12:03.727Z,21.95
2023-02-07T11:14:30.144Z,20.78
2023-02-07T11:16:56.439Z,22.23
2023-02-07T11:19:22.759Z,21.11
2023-02-07T11:21:49.021Z,21.84
2023-02-07T11:24:15.303Z,21.49
2023-02-07T11:26:41.600Z,21.25
2023-02-07T11:29:08.077Z,21.21
2023-02-07T11:31:34.459Z,21.50
2023-02-07T11:34:00.772Z,20.95
2023-02-07T11:36:27.068Z,22.31
2023-02-07T11:38:53.355Z,21.12
2023-02-07T11:41:19.628Z,21.58
2023-02-07T11:43:45.918Z,21.78
2023-02-07T11:46:12.238Z,21.24
2023-02-07T11:48:38.553Z,21.74
2023-02-07T11:51:04.838Z,21.42
2023-02-07T11:53:31.116Z,20.84
2023-02-07T11:55:57.420Z,21.34
2023-02-07T11:58:23.675Z,20.94
2023-02-07T12:00:49.939Z,20.93
2023-02-07T12:03:16.217Z,21.14
2023-02-07T12:05:42.505Z,21.06
2023-02-07T12:08:08.786Z,20.04
2023-02-07T12:10:35.072Z,20.30
2023-02-07T12:13:01.349Z,21.51
2023-02-07T12:15:27.622Z,20.27
2023-02-07T12:17:53.915Z,21.22
2023-02-07T12:20:20.211Z,21.42
2023-02-07T12:22:53.156Z,20.03
2023-02-07T12:25:23.732Z,20.46
2023-02-07T12:27:51.191Z,21.43
2023-02-07T12:30:17.561Z,21.91
2023-02-07T12:32:43.961Z,19.68
2023-02-07T12:35:10.283Z,20.54
2023-02-07T12:37:36.540Z,20.06
2023-02-07T12:40:02.831Z,20.68
2023-02-07T12:42:29.104Z,21.08
2023-02-07T12:44:55.382Z,21.37
2023-02-07T12:47:21.654Z,20.53
2023-02-07T12:49:47.942Z,20.15
2023-02-07T12:52:14.362Z,20.06
2023-02-07T12:54:40.649Z,19.46
2023-02-07T12:57:07.204Z,20.11
2023-02-07T12:59:33.585Z,19.37
2023-02-07T13:01:59.886Z,19.53
2023-02-07T13:04:26.144Z,19.43
2023-02-07T13:06:52.440Z,19.71
2023-02-07T13:09:18.742Z,19.97
2023-02-07T13:11:45.048Z,20.05
2023-02-07T13:14:11.476Z,19.11
2023-02-07T13:16:37.791Z,20.91
2023-02-07T13:19:04.098Z,20.49
2023-02-07T13:21:30.362Z,20.58
2023-02-07T13:23:56.616Z,19.46
2023-02-07T13:26:22.899Z,20.50
2023-02-07T13:28:49.147Z,20.61
2023-02-07T13:31:15.501Z,20.57
2023-02-07T13:33:41.849Z,20.53
2023-02-07T13:36:08.134Z,21.52
2023-02-07T13:38:34.415Z,21.44
2023-02-07T13:41:00.690Z,21.58
2023-02-07T13:43:26.989Z,22.67
2023-02-07T13:45:53.284Z,21.48
2023-02-07T13:48:19.573Z,20.89
2023-02-07T13:50:45.859Z,22.02
2023-02-07T13:53:12.187Z,21.80
2023-02-07T13:55:38.778Z,21.86
2023-02-07T13:58:05.312Z,22.20
2023-02-07T14:00:31.732Z,22.53
2023-02-07T14:02:58.002Z,23.19
2023-02-07T14:05:24.282Z,22.58
2023-02-07T14:07:50.636Z,22.50
2023-02-07T14:10:16.927Z,22.82
2023-02-07T14:12:43.228Z,23.12
2023-02-07T14:15:09.547Z,23.26
2023-02-07T14:17:35.830Z,23.12
2023-02-07T14:20:02.105Z,23.04
2023-02-07T14:22:28.463Z,22.83
2023-02-07T14:24:54.735Z,22.29
2023-02-07T14:27:21.067Z,22.65
2023-02-07T14:29:47.335Z,23.63
2023-02-07T14:32:13.635Z,22.37
2023-02-07T14:34:39.912Z,22.25
2023-02-07T14:37:06.233Z,23.15
2023-02-07T14:39:32.547Z,22.96
2023-02-07T14:41:58.849Z,20.64
2023-02-07T14:44:25.161Z,17.95
2023-02-07T14:46:51.493Z,18.70
2023-02-07T14:49:17.820Z,18.76
2023-02-07T14:51:44.095Z,18.88
2023-02-07T14:54:10.352Z,18.22
2023-02-07T14:56:36.680Z,17.99
2023-02-07T14:59:02.990Z,17.82
2023-02-07T15:01:29.340Z,18.36
2023-02-07T15:03:55.686Z,17.83
2023-02-07T15:06:31.824Z,17.99
2023-02-07T15:08:58.368Z,18.45
2023-02-07T15:11:24.639Z,18.24
2023-02-07T15:13:50.918Z,18.62
2023-02-07T15:16:17.205Z,18.93
2023-02-07T15:18:43.523Z,18.13
2023-02-07T15:21:09.779Z,18.93
